Time;durP1;ratioP1;P1;durP2;ratioP2;P2;SDS_P1;SDS_P2;PMS_P1;PMS_P2;Temp;Humidity;BMP_temperature;BMP_pressure;BME280_temperature;BME280_humidity;BME280_pressure;Samples;Min_cycle;Max_cycle;Signal;HPM_P1;HPM_P2
2023/02/09 00:00:18;;;;;;;5.72;5.03;;;;;;;0.67;90.91;103191.31;5044810;28;20064;-74
2023/02/09 00:02:43;;;;;;;6.55;5.55;;;;;;;0.65;90.88;103186.94;5038410;28;20133;-74
2023/02/09 00:05:09;;;;;;;7.28;5.10;;;;;;;0.63;91.06;103192.03;5045654;28;20044;-74
2023/02/09 00:07:35;;;;;;;6.50;5.40;;;;;;;0.61;90.89;103188.50;5041789;28;20029;-74
2023/02/09 00:10:00;;;;;;;5.97;5.20;;;;;;;0.60;90.89;103191.03;5046265;28;20045;-74
2023/02/09 00:15:10;;;;;;;6.15;5.22;;;;;;;0.59;90.98;103178.97;5041371;28;20043;-74
2023/02/09 00:17:36;;;;;;;6.38;5.43;;;;;;;0.58;91.10;103172.91;5040528;28;20264;-74
2023/02/09 00:20:06;;;;;;;7.82;5.68;;;;;;;0.58;91.09;103180.66;5042145;28;20127;-74
2023/02/09 00:22:32;;;;;;;7.35;5.20;;;;;;;0.56;91.12;103178.03;5042780;28;20017;-74
2023/02/09 00:24:57;;;;;;;6.45;4.90;;;;;;;0.56;91.22;103179.72;5040377;28;20087;-74
2023/02/09 00:27:22;;;;;;;5.55;5.05;;;;;;;0.56;91.39;103182.28;5040666;28;20263;-74
2023/02/09 00:29:48;;;;;;;5.72;5.20;;;;;;;0.53;91.31;103167.59;5044168;28;20072;-74
2023/02/09 00:32:13;;;;;;;5.82;4.82;;;;;;;0.52;91.46;103178.72;5046103;28;20079;-74
2023/02/09 00:34:38;;;;;;;7.28;5.68;;;;;;;0.52;91.34;103172.69;5048219;28;20257;-74
2023/02/09 00:37:04;;;;;;;7.05;5.30;;;;;;;0.51;91.42;103171.81;5031270;28;20035;-74
2023/02/09 00:39:30;;;;;;;6.50;5.15;;;;;;;0.49;91.38;103170.00;5045988;28;20037;-74
2023/02/09 00:42:09;;;;;;;7.28;5.45;;;;;;;0.49;91.64;103172.56;5040804;28;20033;-74
2023/02/09 00:44:37;;;;;;;6.03;5.43;;;;;;;0.45;91.60;103174.16;5022852;28;20075;-74
2023/02/09 00:47:04;;;;;;;6.50;4.90;;;;;;;0.45;91.69;103168.13;5040813;28;20040;-74
2023/02/09 00:49:30;;;;;;;5.85;5.25;;;;;;;0.42;91.51;103168.91;5039118;28;20044;-74
2023/02/09 00:51:56;;;;;;;7.00;5.55;;;;;;;0.42;91.72;103166.31;5040648;28;20053;-74
2023/02/09 00:54:22;;;;;;;5.95;5.30;;;;;;;0.41;91.66;103159.38;5040024;28;20096;-74
2023/02/09 00:56:48;;;;;;;5.28;4.68;;;;;;;0.40;91.70;103156.75;5040499;28;20029;-74
2023/02/09 00:59:13;;;;;;;5.72;5.07;;;;;;;0.38;92.03;103147.28;5040900;28;20470;-74
2023/02/09 01:01:39;;;;;;;6.85;5.55;;;;;;;0.39;91.87;103153.31;5040092;28;20037;-74
2023/02/09 01:04:04;;;;;;;6.28;4.82;;;;;;;0.37;91.72;103152.38;5026600;28;20033;-74
2023/02/09 01:06:30;;;;;;;5.82;5.25;;;;;;;0.37;91.95;103160.97;5038612;28;20103;-74
2023/02/09 01:08:55;;;;;;;6.22;4.97;;;;;;;0.35;91.69;103154.00;5041095;28;20037;-74
2023/02/09 01:11:25;;;;;;;8.30;5.68;;;;;;;0.34;91.96;103168.56;5040637;28;20041;-74
2023/02/09 01:13:51;;;;;;;5.68;5.18;;;;;;;0.33;91.89;103163.38;5041724;28;20240;-74
2023/02/09 01:16:17;;;;;;;7.10;5.57;;;;;;;0.32;91.93;103161.63;5040744;28;20029;-74
2023/02/09 01:18:42;;;;;;;6.35;5.40;;;;;;;0.31;92.12;103165.91;5045608;28;20072;-74
2023/02/09 01:21:12;;;;;;;8.02;5.88;;;;;;;0.31;92.19;103159.84;5060846;28;20044;-74
2023/02/09 01:23:38;;;;;;;8.93;5.57;;;;;;;0.30;92.04;103158.97;5055522;28;20220;-74
2023/02/09 01:26:05;;;;;;;6.22;5.47;;;;;;;0.30;92.11;103161.53;5060802;28;20024;-74
2023/02/09 01:28:31;;;;;;;5.85;5.25;;;;;;;0.30;92.23;103156.41;5051195;28;20052;-74
2023/02/09 01:30:56;;;;;;;6.07;5.22;;;;;;;0.30;92.30;103156.41;5041290;28;20041;-74
2023/02/09 01:33:22;;;;;;;6.82;5.75;;;;;;;0.30;92.28;103156.41;5037546;28;20349;-74
2023/02/09 01:35:47;;;;;;;5.53;4.95;;;;;;;0.30;92.42;103155.53;5040921;28;20034;-74
2023/02/09 01:38:12;;;;;;;6.53;5.80;;;;;;;0.30;92.41;103153.81;5044298;28;20049;-74
2023/02/09 01:40:38;;;;;;;9.07;6.25;;;;;;;0.32;92.45;103159.03;5060346;28;20052;-74
2023/02/09 01:43:03;;;;;;;10.23;6.03;;;;;;;0.33;92.61;103155.66;5056077;28;20045;-74
2023/02/09 01:45:41;;;;;;;8.18;6.78;;;;;;;0.34;92.56;103140.22;5053434;28;20044;-74
2023/02/09 01:48:06;;;;;;;8.30;7.18;;;;;;;0.37;92.70;103126.59;5056029;28;20029;-74
2023/02/09 01:50:39;;;;;;;9.77;6.95;;;;;;;0.38;92.96;103125.75;5039879;28;20079;-74
2023/02/09 01:53:05;;;;;;;8.68;7.03;;;;;;;0.42;93.03;103114.75;5040430;28;20092;-74
2023/02/09 01:55:35;;;;;;;7.35;6.57;;;;;;;0.44;93.15;103122.53;5039768;28;20041;-74
2023/02/09 01:58:13;;;;;;;8.38;7.20;;;;;;;0.47;93.29;103125.22;5042653;28;20138;-74
2023/02/09 02:04:00;;;;;;;13.02;7.75;;;;;;;0.51;93.40;103119.34;4542368;28;20434;-74
2023/02/09 02:06:26;;;;;;;10.10;7.18;;;;;;;0.51;93.48;103120.25;5045244;28;20233;-74
2023/02/09 02:08:56;;;;;;;7.47;6.68;;;;;;;0.55;93.61;103123.81;5040252;28;20045;-74
2023/02/09 02:11:23;;;;;;;11.85;8.13;;;;;;;0.57;93.52;103120.47;5038478;28;20025;-74
2023/02/09 02:13:49;;;;;;;9.93;7.60;;;;;;;0.58;93.60;103121.34;5039690;28;20029;-74
2023/02/09 02:16:31;;;;;;;10.85;7.60;;;;;;;0.62;93.63;103122.34;5040053;28;20132;-74
2023/02/09 02:19:13;;;;;;;11.35;7.85;;;;;;;0.64;93.73;103116.44;5052417;28;20108;-74
2023/02/09 02:22:06;;;;;;;11.20;8.73;;;;;;;0.68;93.97;103114.84;5056977;28;20060;-74
2023/02/09 02:24:43;;;;;;;9.65;6.85;;;;;;;0.69;93.96;103117.47;5038654;28;20067;-74
2023/02/09 02:27:27;;;;;;;9.07;7.30;;;;;;;0.71;94.03;103113.25;5038887;28;20033;-74
2023/02/09 02:30:18;;;;;;;13.77;7.57;;;;;;;0.72;94.04;103116.72;5058770;28;20335;-74
2023/02/09 02:33:05;;;;;;;8.13;6.45;;;;;;;0.74;94.26;103107.31;5046904;28;20029;-74
2023/02/09 02:35:52;;;;;;;7.65;6.70;;;;;;;0.74;94.28;103113.34;5058275;28;20100;-74
2023/02/09 02:38:21;;;;;;;7.75;6.75;;;;;;;0.76;94.33;103108.25;5043953;28;20041;-74
2023/02/09 02:41:02;;;;;;;8.37;7.07;;;;;;;0.75;94.44;103094.47;5039210;28;20332;-74
2023/02/09 02:44:06;;;;;;;9.63;7.60;;;;;;;0.75;94.39;103089.31;5044375;28;20367;-74
2023/02/09 02:46:53;;;;;;;9.80;7.20;;;;;;;0.76;94.56;103085.94;5057316;28;20049;-74
2023/02/09 02:49:37;;;;;;;7.63;6.70;;;;;;;0.75;94.67;103081.59;5045124;28;20037;-74
2023/02/09 02:52:06;;;;;;;9.43;7.30;;;;;;;0.76;94.71;103093.66;5039827;28;20059;-74
2023/02/09 02:54:38;;;;;;;10.20;7.18;;;;;;;0.76;94.60;103085.94;5049451;28;20033;-74
2023/02/09 02:57:13;;;;;;;8.35;6.80;;;;;;;0.75;94.60;103071.25;5020846;28;20037;-74
2023/02/09 02:59:47;;;;;;;10.45;7.57;;;;;;;0.76;94.70;103075.63;5050514;28;20045;-74
2023/02/09 03:02:18;;;;;;;9.98;7.70;;;;;;;0.76;94.76;103073.03;5053285;28;20041;-74
2023/02/09 03:04:47;;;;;;;14.32;7.47;;;;;;;0.78;94.82;103070.47;5045342;28;20136;-74
2023/02/09 03:07:12;;;;;;;9.07;6.78;;;;;;;0.80;95.01;103075.69;5058299;28;20033;-74
2023/02/09 03:09:50;;;;;;;9.60;7.78;;;;;;;0.80;94.94;103070.53;5021661;28;20128;-74
2023/02/09 03:12:19;;;;;;;9.80;7.88;;;;;;;0.79;95.03;103066.22;5020568;28;20029;-74
2023/02/09 03:15:18;;;;;;;12.23;8.15;;;;;;;0.80;94.91;103062.81;5042794;28;20048;-74
2023/02/09 03:17:43;;;;;;;10.15;8.02;;;;;;;0.80;95.22;103060.22;5058476;28;20099;-74
2023/02/09 03:20:27;;;;;;;10.65;8.02;;;;;;;0.82;95.00;103072.38;5049503;28;20032;-74
2023/02/09 03:22:59;;;;;;;11.73;7.18;;;;;;;0.83;95.17;103065.50;5038622;28;20392;-74
2023/02/09 03:25:36;;;;;;;11.35;7.45;;;;;;;0.85;95.30;103058.69;5046781;28;20037;-74
2023/02/09 03:28:06;;;;;;;11.27;7.65;;;;;;;0.86;95.20;103052.72;5051294;28;20087;-74
2023/02/09 03:30:34;;;;;;;9.13;7.43;;;;;;;0.86;95.19;103045.84;5046966;28;20024;-74
2023/02/09 03:33:01;;;;;;;8.98;6.80;;;;;;;0.88;95.26;103045.91;5047143;28;20132;-74
2023/02/09 03:35:35;;;;;;;9.70;6.75;;;;;;;0.88;95.07;103030.44;5046344;28;20033;-75
2023/02/09 03:38:01;;;;;;;10.32;7.32;;;;;;;0.90;95.24;103037.38;5062175;28;20021;-75
2023/02/09 03:40:26;;;;;;;9.48;7.57;;;;;;;0.90;95.29;103034.81;5056037;28;20029;-75
2023/02/09 03:42:52;;;;;;;9.07;7.32;;;;;;;0.91;95.21;103033.09;5062613;28;20060;-75
2023/02/09 03:45:17;;;;;;;9.43;7.57;;;;;;;0.91;95.33;103034.00;5046497;28;20113;-75
2023/02/09 03:47:42;;;;;;;11.38;7.50;;;;;;;0.91;95.33;103031.41;5026222;28;20389;-75
2023/02/09 03:50:08;;;;;;;13.70;8.40;;;;;;;0.91;95.28;103031.41;5036617;28;20044;-75
2023/02/09 03:52:34;;;;;;;12.18;8.02;;;;;;;0.92;95.30;103029.69;5061395;28;20385;-75
2023/02/09 03:55:00;;;;;;;9.55;7.22;;;;;;;0.93;95.24;103023.72;5059461;28;20091;-75
2023/02/09 03:57:25;;;;;;;8.77;6.97;;;;;;;0.93;95.35;103024.59;5042076;28;20045;-74
2023/02/09 03:59:51;;;;;;;11.90;7.57;;;;;;;0.94;95.47;103021.16;5041823;28;20053;-74
2023/02/09 04:02:16;;;;;;;10.98;7.00;;;;;;;0.95;95.77;103032.41;5030568;28;20041;-74
2023/02/09 04:04:42;;;;;;;10.15;7.50;;;;;;;0.96;95.29;103044.44;5060958;28;20040;-74
2023/02/09 04:07:07;;;;;;;9.13;7.13;;;;;;;0.97;95.31;103047.94;5042222;28;20095;-74
2023/02/09 04:09:33;;;;;;;9.32;7.32;;;;;;;0.96;95.29;103039.28;5041210;28;20129;-74
2023/02/09 04:11:58;;;;;;;11.60;7.65;;;;;;;0.96;95.39;103039.28;5054168;28;20374;-74
2023/02/09 04:14:24;;;;;;;9.13;7.47;;;;;;;0.96;95.24;103041.88;5060879;28;20041;-74
2023/02/09 04:16:49;;;;;;;9.68;7.43;;;;;;;0.97;95.28;103042.78;5045104;28;20064;-74
2023/02/09 04:19:15;;;;;;;8.68;6.68;;;;;;;0.97;95.25;103035.03;5041370;28;20040;-74
2023/02/09 04:21:40;;;;;;;9.18;6.97;;;;;;;0.98;95.17;103035.06;5050203;28;20141;-74
2023/02/09 04:24:06;;;;;;;8.98;6.43;;;;;;;0.99;95.43;103026.50;5061432;28;20064;-74
2023/02/09 04:26:32;;;;;;;13.80;7.10;;;;;;;1.01;95.35;103021.41;5047395;28;20037;-74
2023/02/09 04:28:58;;;;;;;7.07;6.35;;;;;;;1.02;95.27;103015.41;5041533;28;20097;-74
2023/02/09 04:31:23;;;;;;;8.35;6.15;;;;;;;1.01;95.25;103013.66;5026499;28;20033;-74
2023/02/09 04:33:49;;;;;;;11.27;6.95;;;;;;;1.01;95.25;103016.25;5049992;28;20036;-74
2023/02/09 04:36:14;;;;;;;11.07;6.72;;;;;;;1.00;95.01;103020.53;5050360;28;20128;-74
2023/02/09 04:38:39;;;;;;;6.70;6.00;;;;;;;1.00;95.04;103020.53;5041175;28;20224;-74
2023/02/09 04:41:05;;;;;;;9.40;6.75;;;;;;;1.00;95.01;103033.44;5024974;28;20108;-74
2023/02/09 04:43:31;;;;;;;8.18;6.53;;;;;;;1.02;95.00;103036.03;5060727;28;20104;-74
2023/02/09 04:45:57;;;;;;;8.50;6.30;;;;;;;1.02;95.17;103031.78;5035032;28;20054;-74
2023/02/09 04:48:25;;;;;;;8.73;6.22;;;;;;;1.02;95.12;103044.69;5040385;28;20072;-74
2023/02/09 04:50:51;;;;;;;7.65;6.15;;;;;;;1.02;95.12;103052.44;5046783;28;20044;-74
2023/02/09 04:53:17;;;;;;;7.88;6.22;;;;;;;1.03;95.07;103049.00;5060679;28;20098;-74
2023/02/09 04:55:45;;;;;;;9.68;6.88;;;;;;;1.03;95.05;103048.13;5056101;28;20048;-74
2023/02/09 05:00:57;;;;;;;7.47;6.28;;;;;;;1.02;94.97;103057.59;5038651;28;20239;-74
2023/02/09 05:03:24;;;;;;;6.60;5.75;;;;;;;1.03;95.03;103056.75;5055043;28;20052;-74
2023/02/09 05:05:54;;;;;;;6.30;5.70;;;;;;;1.02;94.97;103056.69;5035692;28;20077;-74
2023/02/09 05:08:19;;;;;;;11.30;6.72;;;;;;;1.01;94.88;103055.81;5039377;28;20021;-74
2023/02/09 05:10:45;;;;;;;8.50;6.30;;;;;;;1.01;95.06;103060.97;5040302;28;20141;-73
2023/02/09 05:13:10;;;;;;;6.88;6.10;;;;;;;1.03;95.05;103061.03;5040290;28;20245;-74
2023/02/09 05:15:35;;;;;;;7.10;5.70;;;;;;;1.03;95.06;103061.03;5039934;28;20283;-74
2023/02/09 05:18:01;;;;;;;10.30;6.30;;;;;;;1.02;95.05;103067.91;5040177;28;20041;-74
2023/02/09 05:20:26;;;;;;;6.88;6.18;;;;;;;1.02;94.90;103067.00;5039647;28;20033;-74
2023/02/09 05:22:52;;;;;;;7.63;6.18;;;;;;;1.03;94.88;103074.81;5040043;28;20086;-74
2023/02/09 05:25:17;;;;;;;7.53;5.80;;;;;;;1.02;94.69;103077.34;5048003;28;20041;-74
2023/02/09 05:27:43;;;;;;;6.68;5.95;;;;;;;1.03;94.76;103074.81;5029110;28;20076;-74
2023/02/09 05:30:09;;;;;;;7.75;5.75;;;;;;;1.03;94.92;103074.81;5040167;28;20060;-74
2023/02/09 05:32:34;;;;;;;6.32;5.68;;;;;;;1.04;94.84;103092.06;5040657;28;20237;-74
2023/02/09 05:35:00;;;;;;;8.20;6.22;;;;;;;1.02;94.72;103078.22;5039697;28;20159;-74
2023/02/09 05:37:25;;;;;;;10.40;6.13;;;;;;;1.03;94.78;103076.53;5050289;28;20033;-74
2023/02/09 05:39:51;;;;;;;9.77;5.95;;;;;;;1.03;94.59;103076.53;5039835;28;20037;-74
2023/02/09 05:42:16;;;;;;;7.35;5.80;;;;;;;1.02;94.85;103073.06;5040517;28;20041;-74
2023/02/09 05:44:46;;;;;;;8.57;6.05;;;;;;;1.03;94.82;103071.34;5039385;28;20033;-74
2023/02/09 05:47:14;;;;;;;6.50;5.50;;;;;;;1.04;94.88;103078.28;5049093;28;20059;-74
2023/02/09 05:49:40;;;;;;;7.82;5.85;;;;;;;1.01;94.78;103073.88;5039271;28;20379;-74
2023/02/09 05:52:06;;;;;;;6.35;5.18;;;;;;;1.02;94.93;103072.16;5038839;28;20045;-74
2023/02/09 05:54:31;;;;;;;6.10;5.45;;;;;;;1.01;94.73;103083.34;5038878;28;20277;-74
2023/02/09 05:56:56;;;;;;;8.40;5.88;;;;;;;1.02;94.63;103077.34;5039397;28;20048;-74
2023/02/09 05:59:22;;;;;;;6.45;5.78;;;;;;;1.01;94.69;103083.34;5038558;28;20053;-74
2023/02/09 06:01:47;;;;;;;8.38;5.85;;;;;;;1.02;94.82;103085.06;5041965;28;20037;-74
2023/02/09 06:04:13;;;;;;;5.85;5.35;;;;;;;1.01;94.65;103083.34;5036933;28;20049;-74
2023/02/09 06:06:38;;;;;;;9.23;6.70;;;;;;;1.01;94.69;103097.09;5047206;28;20082;-74
2023/02/09 06:09:04;;;;;;;8.88;6.15;;;;;;;1.01;94.50;103101.41;5042099;28;20037;-74
2023/02/09 06:11:29;;;;;;;9.85;7.68;;;;;;;1.00;94.67;103110.84;5038853;28;20329;-74
2023/02/09 06:13:55;;;;;;;8.63;6.30;;;;;;;1.00;94.52;103104.78;5039216;28;20068;-74
2023/02/09 06:16:21;;;;;;;7.90;5.70;;;;;;;1.01;94.56;103115.16;5039028;28;20033;-74
2023/02/09 06:18:46;;;;;;;6.93;6.03;;;;;;;1.02;94.56;103110.88;5039224;28;20037;-74
2023/02/09 06:21:11;;;;;;;8.52;6.40;;;;;;;1.03;94.68;103110.06;5038999;28;20112;-74
2023/02/09 06:23:37;;;;;;;7.80;5.55;;;;;;;1.04;94.63;103111.84;5038355;28;20106;-74
2023/02/09 06:26:11;;;;;;;8.02;5.72;;;;;;;1.03;94.53;103115.22;5041536;28;20041;-74
2023/02/09 06:28:37;;;;;;;8.27;5.93;;;;;;;1.02;94.54;103116.03;5042102;28;20132;-74
2023/02/09 06:31:03;;;;;;;6.10;5.50;;;;;;;1.02;94.64;103119.53;5048141;28;20049;-74
2023/02/09 06:33:28;;;;;;;7.78;5.97;;;;;;;1.01;94.61;103122.03;5035632;28;20048;-74
2023/02/09 06:35:53;;;;;;;7.35;6.22;;;;;;;1.02;94.63;103119.53;5045229;28;20056;-74
2023/02/09 06:38:19;;;;;;;6.40;5.47;;;;;;;1.02;94.75;103123.78;5038365;28;20041;-74
2023/02/09 06:40:46;;;;;;;6.60;5.68;;;;;;;1.01;94.77;103116.88;5043160;28;20122;-74
2023/02/09 06:43:11;;;;;;;7.32;6.03;;;;;;;1.01;94.67;103124.63;5038492;28;20399;-74
2023/02/09 06:45:38;;;;;;;9.25;5.93;;;;;;;1.00;94.75;103126.34;5038738;28;20041;-74
2023/02/09 06:48:04;;;;;;;8.45;6.20;;;;;;;1.00;94.84;103122.84;5038549;28;20065;-74
2023/02/09 06:50:30;;;;;;;6.72;5.93;;;;;;;1.01;94.76;103119.47;5052127;28;20044;-74
2023/02/09 06:52:56;;;;;;;6.20;5.60;;;;;;;1.01;94.79;103127.19;5039234;28;20232;-74
2023/02/09 06:55:22;;;;;;;10.70;6.50;;;;;;;1.01;94.78;103114.31;5047007;28;20049;-74
2023/02/09 06:57:47;;;;;;;7.38;5.38;;;;;;;1.01;94.78;103111.72;5036477;28;20602;-74
2023/02/09 07:00:13;;;;;;;7.20;5.80;;;;;;;1.01;95.02;103084.19;5049418;28;20048;-74
2023/02/09 07:02:41;;;;;;;8.10;5.85;;;;;;;1.01;94.85;103094.53;5044831;28;20068;-74
2023/02/09 07:05:07;;;;;;;7.85;5.78;;;;;;;1.01;95.10;103093.66;5037847;28;20067;-74
2023/02/09 07:07:32;;;;;;;7.97;5.95;;;;;;;1.01;95.04;103091.94;5049705;28;20036;-74
2023/02/09 07:09:57;;;;;;;8.65;6.20;;;;;;;1.00;95.13;103108.28;5043196;28;20357;-74
2023/02/09 07:12:23;;;;;;;8.68;6.32;;;;;;;0.98;94.21;103107.31;5037986;28;20131;-74
2023/02/09 07:14:48;;;;;;;8.20;5.95;;;;;;;1.00;94.45;103110.84;5042514;28;20091;-74
2023/02/09 07:17:14;;;;;;;9.20;6.88;;;;;;;1.00;94.48;103102.22;5028750;28;20048;-74
2023/02/09 07:19:39;;;;;;;8.45;6.35;;;;;;;1.00;94.59;103097.94;5032718;28;20108;-74
2023/02/09 07:22:04;;;;;;;9.30;5.80;;;;;;;1.01;94.67;103107.44;5009148;28;20052;-74
2023/02/09 07:24:30;;;;;;;10.73;7.82;;;;;;;0.95;93.46;103112.38;5039749;28;20041;-74
2023/02/09 07:26:55;;;;;;;8.35;6.13;;;;;;;0.97;93.57;103123.63;5033882;28;20045;-74
2023/02/09 07:29:21;;;;;;;7.80;6.40;;;;;;;0.98;93.87;103114.19;5056769;28;20048;-74
2023/02/09 07:31:46;;;;;;;8.38;6.07;;;;;;;0.98;94.16;103124.50;5050449;28;20388;-74
2023/02/09 07:34:11;;;;;;;8.50;6.60;;;;;;;1.00;94.22;103128.91;5037972;28;20064;-74
2023/02/09 07:36:37;;;;;;;10.20;6.75;;;;;;;0.99;94.31;103132.31;5037572;28;20038;-74
2023/02/09 07:39:02;;;;;;;7.45;5.88;;;;;;;1.00;94.26;103133.16;5039790;28;20045;-74
2023/02/09 07:41:28;;;;;;;7.85;6.65;;;;;;;1.00;94.40;103118.59;5036975;28;20122;-74
2023/02/09 07:43:55;;;;;;;7.35;6.03;;;;;;;1.00;94.36;103116.00;5035806;28;20048;-74
2023/02/09 07:46:22;;;;;;;7.10;5.88;;;;;;;0.99;94.21;103121.97;5035785;28;20043;-74
2023/02/09 07:48:48;;;;;;;7.20;6.00;;;;;;;1.00;94.33;103135.75;5038393;28;20036;-74
2023/02/09 07:51:24;;;;;;;10.02;6.47;;;;;;;0.99;94.40;103136.59;5033233;28;20226;-74
2023/02/09 07:53:51;;;;;;;7.80;5.43;;;;;;;1.00;94.31;103130.59;5033607;28;20046;-74
2023/02/09 07:56:17;;;;;;;10.60;6.47;;;;;;;1.00;94.43;103136.66;5036770;28;20044;-74
2023/02/09 07:58:42;;;;;;;10.57;5.80;;;;;;;1.02;94.50;103128.94;5041570;28;20041;-74
2023/02/09 08:01:10;;;;;;;8.85;6.30;;;;;;;1.03;94.71;103133.28;5057325;28;20077;-74
2023/02/09 08:03:37;;;;;;;10.25;7.45;;;;;;;1.03;94.59;103126.41;5052307;28;20233;-74
2023/02/09 08:06:21;;;;;;;7.93;6.20;;;;;;;1.04;94.62;103119.59;5041101;28;20337;-74
2023/02/09 08:08:48;;;;;;;8.13;6.05;;;;;;;1.04;94.72;103125.59;5036587;28;20037;-74
2023/02/09 08:11:23;;;;;;;7.53;6.20;;;;;;;1.04;94.60;103133.34;5036757;28;20313;-74
2023/02/09 08:13:53;;;;;;;8.15;5.78;;;;;;;1.06;94.86;103129.13;5049496;28;20025;-74
2023/02/09 08:16:21;;;;;;;7.38;6.35;;;;;;;1.07;94.71;103137.72;5038833;28;20033;-74
2023/02/09 08:18:52;;;;;;;7.97;6.32;;;;;;;1.08;94.75;103135.22;5057012;28;20351;-74
2023/02/09 08:21:19;;;;;;;13.00;7.90;;;;;;;1.06;94.26;103131.69;5046956;28;20266;-74
2023/02/09 08:23:47;;;;;;;8.40;5.97;;;;;;;1.07;94.21;103129.97;5057016;28;20041;-74
2023/02/09 08:26:14;;;;;;;8.40;5.90;;;;;;;1.07;94.42;103130.84;5061516;28;20028;-74
2023/02/09 08:28:44;;;;;;;7.63;6.15;;;;;;;1.09;94.28;103133.50;5043899;28;20132;-74
2023/02/09 08:31:11;;;;;;;7.15;5.82;;;;;;;1.09;94.30;103131.81;5040212;28;20036;-74
2023/02/09 08:33:36;;;;;;;9.27;5.95;;;;;;;1.10;94.47;103132.69;5050278;28;20043;-74
2023/02/09 08:36:02;;;;;;;7.95;6.20;;;;;;;1.11;94.38;103137.00;5048742;28;20045;-74
2023/02/09 08:38:27;;;;;;;8.70;6.45;;;;;;;1.10;94.14;103138.72;5052078;28;20056;-74
2023/02/09 08:40:53;;;;;;;8.60;6.65;;;;;;;1.12;94.23;103123.28;5044505;28;20044;-74
2023/02/09 08:43:18;;;;;;;7.75;6.22;;;;;;;1.14;94.39;103119.06;5040963;28;20064;-74
2023/02/09 08:45:43;;;;;;;9.02;6.40;;;;;;;1.16;94.29;103112.25;5044568;28;20069;-74
2023/02/09 08:48:09;;;;;;;10.63;6.55;;;;;;;1.17;94.41;103124.34;5040645;28;20041;-74
2023/02/09 08:50:35;;;;;;;7.43;6.50;;;;;;;1.18;94.16;103123.50;5034589;28;20088;-74
2023/02/09 08:53:04;;;;;;;9.50;6.57;;;;;;;1.19;94.32;103116.66;5031849;28;20056;-74
2023/02/09 08:55:30;;;;;;;8.63;7.25;;;;;;;1.21;94.37;103125.31;5040091;28;20052;-74
2023/02/09 08:57:56;;;;;;;10.05;6.95;;;;;;;1.22;94.10;103134.81;5041161;28;20031;-74
2023/02/09 09:00:21;;;;;;;7.93;6.13;;;;;;;1.24;94.04;103138.34;5039942;28;20045;-74
2023/02/09 09:02:47;;;;;;;7.35;6.05;;;;;;;1.25;94.25;103133.22;5040402;28;20096;-74
2023/02/09 09:05:13;;;;;;;14.30;6.28;;;;;;;1.27;94.30;103139.28;5040560;28;20075;-74
2023/02/09 09:07:38;;;;;;;10.10;6.32;;;;;;;1.28;94.31;103141.06;5038229;28;20041;-74
2023/02/09 09:10:04;;;;;;;8.52;6.82;;;;;;;1.29;94.13;103136.78;5037740;28;20300;-74
2023/02/09 09:12:30;;;;;;;7.45;6.47;;;;;;;1.29;94.11;103132.50;5039044;28;20049;-74
2023/02/09 09:14:55;;;;;;;7.88;6.07;;;;;;;1.32;94.04;103121.41;5039299;28;20229;-74
2023/02/09 09:17:21;;;;;;;9.15;6.70;;;;;;;1.36;94.29;103124.97;5039026;28;20254;-74
2023/02/09 09:19:46;;;;;;;14.18;8.80;;;;;;;1.37;94.31;103131.91;5043151;28;20037;-74
2023/02/09 09:22:11;;;;;;;8.68;6.88;;;;;;;1.37;94.12;103124.16;5039567;28;20052;-74
2023/02/09 09:24:40;;;;;;;7.80;6.53;;;;;;;1.37;94.12;103139.66;5038442;28;20032;-74
2023/02/09 09:27:09;;;;;;;10.13;6.70;;;;;;;1.40;94.09;103134.56;5037491;28;20211;-74
2023/02/09 09:29:38;;;;;;;9.73;6.80;;;;;;;1.41;94.34;103129.44;5038280;28;20041;-74
2023/02/09 09:32:04;;;;;;;;;;;;;;;1.44;94.17;103133.88;5038431;28;20376;-74
2023/02/09 09:34:29;;;;;;;9.07;7.00;;;;;;;1.47;94.19;103155.47;5039029;28;19991;-74
2023/02/09 09:36:54;;;;;;;12.20;6.88;;;;;;;1.49;94.28;103159.00;5039416;28;20302;-74
2023/02/09 09:39:19;;;;;;;8.52;6.72;;;;;;;1.51;93.98;103161.63;5039952;28;20240;-74
2023/02/09 09:41:48;;;;;;;10.50;8.20;;;;;;;1.53;94.40;103165.16;5038561;28;20333;-74
2023/02/09 09:44:19;;;;;;;10.18;7.10;;;;;;;1.55;94.46;103168.69;5038942;28;20045;-74
2023/02/09 09:46:50;;;;;;;9.70;6.88;;;;;;;1.57;94.42;103169.59;5039760;28;20048;-74
2023/02/09 09:49:26;;;;;;;9.02;6.43;;;;;;;1.60;94.70;103161.97;5039304;28;20036;-74
2023/02/09 09:52:01;;;;;;;11.98;8.25;;;;;;;1.61;94.75;103163.69;5039350;28;20049;-74
2023/02/09 09:54:31;;;;;;;9.80;7.35;;;;;;;1.62;94.53;103165.47;5046212;28;20057;-74
2023/02/09 09:56:57;;;;;;;15.93;10.90;;;;;;;1.63;93.76;103158.59;5039773;28;20033;-74
2023/02/09 09:59:27;;;;;;;12.15;7.95;;;;;;;1.65;93.86;103162.97;5053028;28;20060;-74
2023/02/09 10:01:54;;;;;;;10.95;8.95;;;;;;;1.67;93.56;103157.84;5045649;28;20044;-74
2023/02/09 10:04:20;;;;;;;15.23;9.63;;;;;;;1.68;93.42;103169.97;5051129;28;20037;-74
2023/02/09 10:06:55;;;;;;;10.43;7.75;;;;;;;1.71;93.79;103176.13;5054905;28;20067;-74
2023/02/09 10:09:43;;;;;;;10.10;7.05;;;;;;;1.75;93.88;103166.75;5039074;28;20263;-74
2023/02/09 10:12:37;;;;;;;18.55;11.13;;;;;;;1.77;94.21;103164.22;5038558;28;20052;-74
2023/02/09 10:15:36;;;;;;;12.00;8.68;;;;;;;1.80;94.20;103172.97;5036026;28;20035;-74
2023/02/09 10:18:01;;;;;;;14.43;10.37;;;;;;;1.80;93.60;103164.31;5002028;28;20088;-74
2023/02/09 10:20:47;;;;;;;12.70;9.00;;;;;;;1.82;93.59;103184.22;5039338;28;20336;-74
2023/02/09 10:23:24;;;;;;;15.02;9.88;;;;;;;1.84;93.79;103187.72;5047418;28;20103;-74
2023/02/09 10:26:02;;;;;;;17.58;10.63;;;;;;;1.87;93.90;103187.84;5039037;28;20079;-74
2023/02/09 10:28:36;;;;;;;9.10;7.40;;;;;;;1.90;94.10;103192.22;5038669;28;20329;-74
2023/02/09 10:31:10;;;;;;;8.55;7.65;;;;;;;1.94;94.40;103188.03;5038976;28;20044;-74
2023/02/09 10:33:41;;;;;;;11.60;8.65;;;;;;;1.96;94.47;103188.97;5040147;28;20029;-74
2023/02/09 10:36:22;;;;;;;8.60;7.43;;;;;;;1.98;94.66;103195.91;5034864;28;20025;-74
2023/02/09 10:38:48;;;;;;;10.75;8.85;;;;;;;2.02;94.79;103186.56;5032120;28;20037;-73
2023/02/09 10:41:14;;;;;;;17.98;11.48;;;;;;;1.99;93.67;103199.41;5038912;28;20041;-73
2023/02/09 10:43:40;;;;;;;19.42;10.48;;;;;;;2.02;93.54;103194.31;5038566;28;20267;-73
2023/02/09 10:46:16;;;;;;;17.33;11.25;;;;;;;2.04;93.71;103198.72;5039332;28;20033;-73
2023/02/09 10:48:44;;;;;;;12.93;9.18;;;;;;;2.07;93.62;103192.75;5039166;28;20244;-73
2023/02/09 10:51:28;;;;;;;19.80;12.23;;;;;;;2.09;93.49;103188.50;5039208;28;20064;-73
2023/02/09 10:54:18;;;;;;;18.67;11.57;;;;;;;2.10;93.34;103201.50;5036799;28;20048;-74
2023/02/09 10:56:47;;;;;;;22.02;13.68;;;;;;;2.15;93.77;103203.34;5038828;28;20025;-74
2023/02/09 10:59:18;;;;;;;14.90;11.32;;;;;;;2.18;93.92;103206.03;5039122;28;20036;-74
2023/02/09 11:01:55;;;;;;;22.63;14.15;;;;;;;2.21;93.98;103208.72;5038789;28;20060;-74
2023/02/09 11:04:24;;;;;;;25.05;13.68;;;;;;;2.22;92.71;103210.47;5026757;28;20101;-74
2023/02/09 11:06:54;;;;;;;19.17;12.37;;;;;;;2.25;92.57;103205.41;5038842;28;20045;-73
2023/02/09 11:09:25;;;;;;;20.45;13.10;;;;;;;2.27;91.76;103201.16;5035223;28;20041;-74
2023/02/09 11:11:51;;;;;;;24.88;14.05;;;;;;;2.28;91.28;103211.56;5038939;28;20036;-74
2023/02/09 11:14:18;;;;;;;21.83;14.32;;;;;;;2.32;90.62;103217.69;5038404;28;20045;-74
2023/02/09 11:17:19;;;;;;;19.50;12.93;;;;;;;2.34;91.03;103216.03;5038546;28;20075;-74
2023/02/09 11:19:57;;;;;;;18.95;12.25;;;;;;;2.40;91.23;103210.16;4920011;29;20247;-74
2023/02/09 11:22:49;;;;;;;20.40;13.95;;;;;;;2.42;90.71;103208.50;5023730;28;20049;-74
2023/02/09 11:25:33;;;;;;;17.55;12.75;;;;;;;2.45;90.67;103206.03;5038601;28;20444;-74
2023/02/09 11:28:19;;;;;;;24.45;14.10;;;;;;;2.46;90.99;103193.16;5026883;28;20356;-74
2023/02/09 11:30:51;;;;;;;22.95;13.35;;;;;;;2.46;90.85;103195.72;5031216;28;20325;-74
2023/02/09 11:33:39;;;;;;;20.60;13.55;;;;;;;2.48;90.26;103208.72;5028487;28;20053;-74
2023/02/09 11:36:39;;;;;;;26.13;14.27;;;;;;;2.50;90.21;103202.75;5036187;28;20025;-74
2023/02/09 11:39:26;;;;;;;31.73;15.35;;;;;;;2.55;90.70;103205.50;5010419;28;20041;-74
2023/02/09 11:45:06;;;;;;;30.95;13.32;;;;;;;2.64;90.85;103204.91;5036314;28;20041;-74
2023/02/09 11:47:57;;;;;;;20.50;12.75;;;;;;;2.69;91.32;103208.47;5036477;28;20360;-74
2023/02/09 11:50:37;;;;;;;18.52;10.60;;;;;;;2.73;91.30;103210.34;5020016;28;20040;-74